sensor_id;sensor_type;location;lat;lon;timestamp;P1;durP1;ratioP1;P2;durP2;ratioP2
15067;SDS011;7633;60.024;18.770;2023-07-02T00:00:38;3.05;;;2.60;;
15067;SDS011;7633;60.024;18.770;2023-07-02T00:03:10;3.28;;;2.97;;
15067;SDS011;7633;60.024;18.770;2023-07-02T00:05:42;3.67;;;2.65;;
15067;SDS011;7633;60.024;18.770;2023-07-02T00:08:14;4.15;;;3.05;;
15067;SDS011;7633;60.024;18.770;2023-07-02T00:10:53;3.38;;;2.85;;
15067;SDS011;7633;60.024;18.770;2023-07-02T00:13:28;3.08;;;2.88;;
15067;SDS011;7633;60.024;18.770;2023-07-02T00:16:00;3.45;;;2.90;;
15067;SDS011;7633;60.024;18.770;2023-07-02T00:18:25;4.57;;;3.25;;
15067;SDS011;7633;60.024;18.770;2023-07-02T00:21:00;3.92;;;2.80;;
15067;SDS011;7633;60.024;18.770;2023-07-02T00:23:25;3.75;;;3.00;;
15067;SDS011;7633;60.024;18.770;2023-07-02T00:25:51;3.25;;;2.88;;
15067;SDS011;7633;60.024;18.770;2023-07-02T00:28:16;3.67;;;3.20;;
15067;SDS011;7633;60.024;18.770;2023-07-02T00:30:42;3.88;;;3.47;;
15067;SDS011;7633;60.024;18.770;2023-07-02T00:33:08;3.65;;;2.78;;
15067;SDS011;7633;60.024;18.770;2023-07-02T00:35:33;4.22;;;2.97;;
15067;SDS011;7633;60.024;18.770;2023-07-02T00:37:58;3.67;;;3.30;;
15067;SDS011;7633;60.024;18.770;2023-07-02T00:40:24;3.65;;;3.35;;
15067;SDS011;7633;60.024;18.770;2023-07-02T00:42:51;3.90;;;3.60;;
15067;SDS011;7633;60.024;18.770;2023-07-02T00:45:17;3.97;;;3.42;;
15067;SDS011;7633;60.024;18.770;2023-07-02T00:47:42;3.58;;;3.28;;
15067;SDS011;7633;60.024;18.770;2023-07-02T00:50:08;4.00;;;3.70;;
15067;SDS011;7633;60.024;18.770;2023-07-02T00:52:34;3.92;;;2.92;;
15067;SDS011;7633;60.024;18.770;2023-07-02T00:55:00;3.53;;;3.17;;
15067;SDS011;7633;60.024;18.770;2023-07-02T00:57:25;3.13;;;2.83;;
15067;SDS011;7633;60.024;18.770;2023-07-02T01:00:00;3.22;;;2.92;;
15067;SDS011;7633;60.024;18.770;2023-07-02T01:02:30;3.40;;;3.10;;
15067;SDS011;7633;60.024;18.770;2023-07-02T01:04:56;3.70;;;2.90;;
15067;SDS011;7633;60.024;18.770;2023-07-02T01:07:23;3.42;;;3.13;;
15067;SDS011;7633;60.024;18.770;2023-07-02T01:09:49;3.88;;;2.95;;
15067;SDS011;7633;60.024;18.770;2023-07-02T01:12:15;3.40;;;3.10;;
15067;SDS011;7633;60.024;18.770;2023-07-02T01:14:44;3.80;;;3.30;;
15067;SDS011;7633;60.024;18.770;2023-07-02T01:17:10;4.28;;;3.17;;
15067;SDS011;7633;60.024;18.770;2023-07-02T01:19:46;3.53;;;3.00;;
15067;SDS011;7633;60.024;18.770;2023-07-02T01:22:20;3.55;;;3.13;;
15067;SDS011;7633;60.024;18.770;2023-07-02T01:24:45;3.40;;;3.05;;
15067;SDS011;7633;60.024;18.770;2023-07-02T01:27:13;3.17;;;2.50;;
15067;SDS011;7633;60.024;18.770;2023-07-02T01:29:38;2.67;;;2.43;;
15067;SDS011;7633;60.024;18.770;2023-07-02T01:32:04;3.20;;;3.00;;
15067;SDS011;7633;60.024;18.770;2023-07-02T01:34:29;3.40;;;3.10;;
15067;SDS011;7633;60.024;18.770;2023-07-02T01:36:55;3.33;;;2.67;;
15067;SDS011;7633;60.024;18.770;2023-07-02T01:39:20;3.35;;;2.80;;
15067;SDS011;7633;60.024;18.770;2023-07-02T01:41:52;3.17;;;2.72;;
15067;SDS011;7633;60.024;18.770;2023-07-02T01:44:18;3.00;;;2.80;;
15067;SDS011;7633;60.024;18.770;2023-07-02T01:46:43;2.75;;;2.50;;
15067;SDS011;7633;60.024;18.770;2023-07-02T01:49:10;3.00;;;2.70;;
15067;SDS011;7633;60.024;18.770;2023-07-02T01:51:35;3.25;;;2.63;;
15067;SDS011;7633;60.024;18.770;2023-07-02T01:54:00;3.08;;;2.78;;
15067;SDS011;7633;60.024;18.770;2023-07-02T01:56:26;2.90;;;2.60;;
15067;SDS011;7633;60.024;18.770;2023-07-02T01:58:51;2.90;;;2.67;;
15067;SDS011;7633;60.024;18.770;2023-07-02T02:01:17;3.47;;;3.17;;
15067;SDS011;7633;60.024;18.770;2023-07-02T02:03:42;4.38;;;3.33;;
15067;SDS011;7633;60.024;18.770;2023-07-02T02:06:08;4.30;;;3.10;;
15067;SDS011;7633;60.024;18.770;2023-07-02T02:08:33;3.25;;;2.95;;
15067;SDS011;7633;60.024;18.770;2023-07-02T02:10:59;5.43;;;3.88;;
15067;SDS011;7633;60.024;18.770;2023-07-02T02:13:25;6.00;;;3.43;;
15067;SDS011;7633;60.024;18.770;2023-07-02T02:15:51;5.25;;;3.78;;
15067;SDS011;7633;60.024;18.770;2023-07-02T02:18:16;5.53;;;3.72;;
15067;SDS011;7633;60.024;18.770;2023-07-02T02:20:42;5.47;;;3.88;;
15067;SDS011;7633;60.024;18.770;2023-07-02T02:23:07;5.60;;;3.72;;
15067;SDS011;7633;60.024;18.770;2023-07-02T02:25:33;9.27;;;4.30;;
15067;SDS011;7633;60.024;18.770;2023-07-02T02:27:58;5.35;;;3.88;;
15067;SDS011;7633;60.024;18.770;2023-07-02T02:30:23;4.80;;;4.10;;
15067;SDS011;7633;60.024;18.770;2023-07-02T02:32:49;4.15;;;3.47;;
15067;SDS011;7633;60.024;18.770;2023-07-02T02:35:14;4.17;;;3.77;;
15067;SDS011;7633;60.024;18.770;2023-07-02T02:37:40;4.47;;;4.03;;
15067;SDS011;7633;60.024;18.770;2023-07-02T02:40:06;4.70;;;4.25;;
15067;SDS011;7633;60.024;18.770;2023-07-02T02:42:32;4.55;;;4.15;;
15067;SDS011;7633;60.024;18.770;2023-07-02T02:44:57;5.10;;;4.30;;
15067;SDS011;7633;60.024;18.770;2023-07-02T02:47:23;5.30;;;4.47;;
15067;SDS011;7633;60.024;18.770;2023-07-02T02:49:48;5.47;;;4.63;;
15067;SDS011;7633;60.024;18.770;2023-07-02T02:52:14;4.93;;;4.43;;
15067;SDS011;7633;60.024;18.770;2023-07-02T02:54:40;4.87;;;4.47;;
15067;SDS011;7633;60.024;18.770;2023-07-02T02:57:05;4.40;;;4.00;;
15067;SDS011;7633;60.024;18.770;2023-07-02T02:59:31;4.85;;;4.35;;
15067;SDS011;7633;60.024;18.770;2023-07-02T03:01:56;4.30;;;3.90;;
15067;SDS011;7633;60.024;18.770;2023-07-02T03:04:22;4.70;;;4.30;;
15067;SDS011;7633;60.024;18.770;2023-07-02T03:06:49;5.18;;;4.60;;
15067;SDS011;7633;60.024;18.770;2023-07-02T03:09:14;4.80;;;4.30;;
15067;SDS011;7633;60.024;18.770;2023-07-02T03:11:40;4.83;;;4.40;;
15067;SDS011;7633;60.024;18.770;2023-07-02T03:14:05;4.57;;;4.17;;
15067;SDS011;7633;60.024;18.770;2023-07-02T03:16:30;4.38;;;3.97;;
15067;SDS011;7633;60.024;18.770;2023-07-02T03:18:56;4.82;;;4.43;;
15067;SDS011;7633;60.024;18.770;2023-07-02T03:21:21;6.75;;;4.68;;
15067;SDS011;7633;60.024;18.770;2023-07-02T03:23:47;5.75;;;4.35;;
15067;SDS011;7633;60.024;18.770;2023-07-02T03:26:12;4.57;;;4.05;;
15067;SDS011;7633;60.024;18.770;2023-07-02T03:28:38;4.90;;;4.47;;
15067;SDS011;7633;60.024;18.770;2023-07-02T03:31:04;4.45;;;4.05;;
15067;SDS011;7633;60.024;18.770;2023-07-02T03:33:31;4.57;;;4.18;;
15067;SDS011;7633;60.024;18.770;2023-07-02T03:35:57;4.03;;;3.72;;
15067;SDS011;7633;60.024;18.770;2023-07-02T03:38:22;5.05;;;4.30;;
15067;SDS011;7633;60.024;18.770;2023-07-02T03:40:48;4.57;;;4.18;;
15067;SDS011;7633;60.024;18.770;2023-07-02T03:43:13;4.65;;;4.25;;
15067;SDS011;7633;60.024;18.770;2023-07-02T03:45:38;4.45;;;4.05;;
15067;SDS011;7633;60.024;18.770;2023-07-02T03:48:04;4.25;;;3.85;;
15067;SDS011;7633;60.024;18.770;2023-07-02T03:50:29;4.07;;;3.78;;
15067;SDS011;7633;60.024;18.770;2023-07-02T03:52:56;5.20;;;4.68;;
15067;SDS011;7633;60.024;18.770;2023-07-02T03:55:22;5.95;;;4.07;;
15067;SDS011;7633;60.024;18.770;2023-07-02T03:57:47;4.45;;;3.97;;
15067;SDS011;7633;60.024;18.770;2023-07-02T04:00:12;4.20;;;3.80;;
15067;SDS011;7633;60.024;18.770;2023-07-02T04:02:38;4.45;;;3.95;;
15067;SDS011;7633;60.024;18.770;2023-07-02T04:05:03;5.13;;;3.88;;
15067;SDS011;7633;60.024;18.770;2023-07-02T04:07:29;4.55;;;4.15;;
15067;SDS011;7633;60.024;18.770;2023-07-02T04:09:58;4.13;;;3.72;;
15067;SDS011;7633;60.024;18.770;2023-07-02T04:12:24;4.35;;;3.95;;
15067;SDS011;7633;60.024;18.770;2023-07-02T04:14:49;4.25;;;3.85;;
15067;SDS011;7633;60.024;18.770;2023-07-02T04:17:14;4.55;;;3.90;;
15067;SDS011;7633;60.024;18.770;2023-07-02T04:19:40;3.78;;;3.47;;
15067;SDS011;7633;60.024;18.770;2023-07-02T04:22:05;4.88;;;3.92;;
15067;SDS011;7633;60.024;18.770;2023-07-02T04:24:31;4.68;;;4.05;;
15067;SDS011;7633;60.024;18.770;2023-07-02T04:26:56;4.38;;;3.90;;
15067;SDS011;7633;60.024;18.770;2023-07-02T04:29:22;3.97;;;3.65;;
15067;SDS011;7633;60.024;18.770;2023-07-02T04:31:47;4.57;;;3.92;;
15067;SDS011;7633;60.024;18.770;2023-07-02T04:34:12;4.90;;;4.13;;
15067;SDS011;7633;60.024;18.770;2023-07-02T04:36:38;4.60;;;3.65;;
15067;SDS011;7633;60.024;18.770;2023-07-02T04:39:04;4.80;;;4.00;;
15067;SDS011;7633;60.024;18.770;2023-07-02T04:41:30;6.47;;;4.65;;
15067;SDS011;7633;60.024;18.770;2023-07-02T04:43:55;4.18;;;3.80;;
15067;SDS011;7633;60.024;18.770;2023-07-02T04:46:21;6.00;;;4.30;;
15067;SDS011;7633;60.024;18.770;2023-07-02T04:48:46;3.88;;;3.50;;
15067;SDS011;7633;60.024;18.770;2023-07-02T04:51:12;4.28;;;3.97;;
15067;SDS011;7633;60.024;18.770;2023-07-02T04:53:37;3.67;;;3.38;;
15067;SDS011;7633;60.024;18.770;2023-07-02T04:56:03;4.55;;;4.13;;
15067;SDS011;7633;60.024;18.770;2023-07-02T04:58:29;4.07;;;3.67;;
15067;SDS011;7633;60.024;18.770;2023-07-02T05:00:54;4.50;;;4.07;;
15067;SDS011;7633;60.024;18.770;2023-07-02T05:03:20;4.38;;;4.07;;
15067;SDS011;7633;60.024;18.770;2023-07-02T05:05:45;4.50;;;3.92;;
15067;SDS011;7633;60.024;18.770;2023-07-02T05:08:10;3.95;;;3.50;;
15067;SDS011;7633;60.024;18.770;2023-07-02T05:10:36;3.90;;;3.60;;
15067;SDS011;7633;60.024;18.770;2023-07-02T05:13:01;3.78;;;3.30;;
15067;SDS011;7633;60.024;18.770;2023-07-02T05:15:26;3.80;;;3.50;;
15067;SDS011;7633;60.024;18.770;2023-07-02T05:17:52;3.90;;;3.58;;
15067;SDS011;7633;60.024;18.770;2023-07-02T05:20:17;3.67;;;3.38;;
15067;SDS011;7633;60.024;18.770;2023-07-02T05:22:42;3.58;;;3.28;;
15067;SDS011;7633;60.024;18.770;2023-07-02T05:25:08;3.83;;;3.17;;
15067;SDS011;7633;60.024;18.770;2023-07-02T05:27:33;3.08;;;2.85;;
15067;SDS011;7633;60.024;18.770;2023-07-02T05:29:59;4.43;;;3.25;;
15067;SDS011;7633;60.024;18.770;2023-07-02T05:32:24;3.00;;;2.80;;
15067;SDS011;7633;60.024;18.770;2023-07-02T05:34:50;3.28;;;2.90;;
15067;SDS011;7633;60.024;18.770;2023-07-02T05:37:15;2.75;;;2.55;;
15067;SDS011;7633;60.024;18.770;2023-07-02T05:39:41;2.95;;;2.75;;
15067;SDS011;7633;60.024;18.770;2023-07-02T05:42:06;1.83;;;1.73;;
15067;SDS011;7633;60.024;18.770;2023-07-02T05:44:31;2.20;;;2.03;;
15067;SDS011;7633;60.024;18.770;2023-07-02T05:46:57;2.00;;;1.90;;
15067;SDS011;7633;60.024;18.770;2023-07-02T05:49:22;1.95;;;1.85;;
15067;SDS011;7633;60.024;18.770;2023-07-02T05:51:48;1.75;;;1.65;;
15067;SDS011;7633;60.024;18.770;2023-07-02T05:54:13;1.77;;;1.67;;
15067;SDS011;7633;60.024;18.770;2023-07-02T05:56:39;1.40;;;1.30;;
15067;SDS011;7633;60.024;18.770;2023-07-02T05:59:04;1.63;;;1.52;;
15067;SDS011;7633;60.024;18.770;2023-07-02T06:01:29;1.70;;;1.60;;
15067;SDS011;7633;60.024;18.770;2023-07-02T06:03:55;1.20;;;1.10;;
15067;SDS011;7633;60.024;18.770;2023-07-02T06:06:23;1.38;;;1.27;;
15067;SDS011;7633;60.024;18.770;2023-07-02T06:08:51;1.48;;;1.00;;
15067;SDS011;7633;60.024;18.770;2023-07-02T06:11:17;1.33;;;1.20;;
15067;SDS011;7633;60.024;18.770;2023-07-02T06:13:42;1.27;;;1.20;;
15067;SDS011;7633;60.024;18.770;2023-07-02T06:16:08;1.40;;;1.30;;
15067;SDS011;7633;60.024;18.770;2023-07-02T06:18:33;1.55;;;1.40;;
15067;SDS011;7633;60.024;18.770;2023-07-02T06:20:59;1.30;;;1.20;;
15067;SDS011;7633;60.024;18.770;2023-07-02T06:23:25;1.02;;;1.02;;
15067;SDS011;7633;60.024;18.770;2023-07-02T06:25:50;1.33;;;1.23;;
15067;SDS011;7633;60.024;18.770;2023-07-02T06:28:24;0.93;;;0.93;;
15067;SDS011;7633;60.024;18.770;2023-07-02T06:30:49;2.22;;;1.23;;
15067;SDS011;7633;60.024;18.770;2023-07-02T06:33:15;1.05;;;1.00;;
15067;SDS011;7633;60.024;18.770;2023-07-02T06:35:40;1.30;;;1.20;;
15067;SDS011;7633;60.024;18.770;2023-07-02T06:38:06;1.60;;;1.00;;
15067;SDS011;7633;60.024;18.770;2023-07-02T06:40:31;1.10;;;1.00;;
15067;SDS011;7633;60.024;18.770;2023-07-02T06:42:56;1.13;;;1.02;;
15067;SDS011;7633;60.024;18.770;2023-07-02T06:45:22;0.90;;;0.90;;
15067;SDS011;7633;60.024;18.770;2023-07-02T06:47:49;0.90;;;0.90;;
15067;SDS011;7633;60.024;18.770;2023-07-02T06:50:14;2.08;;;1.40;;
15067;SDS011;7633;60.024;18.770;2023-07-02T06:52:40;1.38;;;1.27;;
15067;SDS011;7633;60.024;18.770;2023-07-02T06:55:05;1.60;;;1.23;;
15067;SDS011;7633;60.024;18.770;2023-07-02T06:57:30;1.20;;;1.10;;
15067;SDS011;7633;60.024;18.770;2023-07-02T06:59:59;1.30;;;1.20;;
15067;SDS011;7633;60.024;18.770;2023-07-02T07:02:25;1.33;;;1.17;;
15067;SDS011;7633;60.024;18.770;2023-07-02T07:04:50;1.58;;;1.48;;
15067;SDS011;7633;60.024;18.770;2023-07-02T07:07:16;1.92;;;1.73;;
15067;SDS011;7633;60.024;18.770;2023-07-02T07:09:41;1.58;;;1.48;;
15067;SDS011;7633;60.024;18.770;2023-07-02T07:12:07;1.50;;;1.40;;
15067;SDS011;7633;60.024;18.770;2023-07-02T07:14:32;1.63;;;1.50;;
15067;SDS011;7633;60.024;18.770;2023-07-02T07:16:58;1.50;;;1.40;;
15067;SDS011;7633;60.024;18.770;2023-07-02T07:19:23;1.85;;;1.48;;
15067;SDS011;7633;60.024;18.770;2023-07-02T07:21:48;1.83;;;1.50;;
15067;SDS011;7633;60.024;18.770;2023-07-02T07:24:14;1.60;;;1.50;;
15067;SDS011;7633;60.024;18.770;2023-07-02T07:26:39;2.13;;;1.70;;
15067;SDS011;7633;60.024;18.770;2023-07-02T07:29:04;1.42;;;1.33;;
15067;SDS011;7633;60.024;18.770;2023-07-02T07:31:30;2.00;;;1.80;;
15067;SDS011;7633;60.024;18.770;2023-07-02T07:33:55;1.55;;;1.45;;
15067;SDS011;7633;60.024;18.770;2023-07-02T07:36:21;1.88;;;1.77;;
15067;SDS011;7633;60.024;18.770;2023-07-02T07:38:46;1.65;;;1.55;;
15067;SDS011;7633;60.024;18.770;2023-07-02T07:41:11;1.80;;;1.70;;
15067;SDS011;7633;60.024;18.770;2023-07-02T07:43:37;2.25;;;1.80;;
15067;SDS011;7633;60.024;18.770;2023-07-02T07:46:02;1.90;;;1.80;;
15067;SDS011;7633;60.024;18.770;2023-07-02T07:48:27;1.77;;;1.63;;
15067;SDS011;7633;60.024;18.770;2023-07-02T07:50:53;1.90;;;1.80;;
15067;SDS011;7633;60.024;18.770;2023-07-02T07:53:18;2.17;;;1.98;;
15067;SDS011;7633;60.024;18.770;2023-07-02T07:55:44;2.17;;;2.00;;
15067;SDS011;7633;60.024;18.770;2023-07-02T07:58:12;2.33;;;2.13;;
15067;SDS011;7633;60.024;18.770;2023-07-02T08:00:38;1.90;;;1.80;;
15067;SDS011;7633;60.024;18.770;2023-07-02T08:03:03;2.35;;;2.00;;
15067;SDS011;7633;60.024;18.770;2023-07-02T08:05:29;2.20;;;2.10;;
15067;SDS011;7633;60.024;18.770;2023-07-02T08:07:55;2.50;;;2.30;;
15067;SDS011;7633;60.024;18.770;2023-07-02T08:10:21;2.55;;;2.35;;
15067;SDS011;7633;60.024;18.770;2023-07-02T08:12:46;3.10;;;2.90;;
15067;SDS011;7633;60.024;18.770;2023-07-02T08:15:13;2.67;;;2.47;;
15067;SDS011;7633;60.024;18.770;2023-07-02T08:17:38;3.55;;;2.78;;
15067;SDS011;7633;60.024;18.770;2023-07-02T08:20:04;3.63;;;3.13;;
15067;SDS011;7633;60.024;18.770;2023-07-02T08:22:30;2.95;;;2.75;;
15067;SDS011;7633;60.024;18.770;2023-07-02T08:24:55;3.15;;;2.95;;
15067;SDS011;7633;60.024;18.770;2023-07-02T08:27:21;3.33;;;2.92;;
15067;SDS011;7633;60.024;18.770;2023-07-02T08:29:46;3.25;;;3.05;;
15067;SDS011;7633;60.024;18.770;2023-07-02T08:32:12;3.95;;;3.45;;
15067;SDS011;7633;60.024;18.770;2023-07-02T08:34:37;3.80;;;3.50;;
15067;SDS011;7633;60.024;18.770;2023-07-02T08:37:03;4.22;;;3.85;;
15067;SDS011;7633;60.024;18.770;2023-07-02T08:39:29;5.80;;;3.80;;
15067;SDS011;7633;60.024;18.770;2023-07-02T08:41:54;4.03;;;3.63;;
15067;SDS011;7633;60.024;18.770;2023-07-02T08:44:20;5.38;;;3.85;;
15067;SDS011;7633;60.024;18.770;2023-07-02T08:46:49;4.40;;;4.10;;
15067;SDS011;7633;60.024;18.770;2023-07-02T08:49:18;4.32;;;3.97;;
15067;SDS011;7633;60.024;18.770;2023-07-02T08:51:44;6.15;;;4.05;;
15067;SDS011;7633;60.024;18.770;2023-07-02T08:54:11;3.67;;;3.38;;
15067;SDS011;7633;60.024;18.770;2023-07-02T08:56:38;3.75;;;3.45;;
15067;SDS011;7633;60.024;18.770;2023-07-02T08:59:08;3.80;;;3.50;;
15067;SDS011;7633;60.024;18.770;2023-07-02T09:01:44;4.10;;;3.80;;
15067;SDS011;7633;60.024;18.770;2023-07-02T09:04:14;4.30;;;3.90;;
15067;SDS011;7633;60.024;18.770;2023-07-02T09:06:39;4.38;;;3.97;;
15067;SDS011;7633;60.024;18.770;2023-07-02T09:09:05;4.00;;;3.60;;
15067;SDS011;7633;60.024;18.770;2023-07-02T09:11:31;4.47;;;3.75;;
15067;SDS011;7633;60.024;18.770;2023-07-02T09:13:56;4.07;;;3.67;;
15067;SDS011;7633;60.024;18.770;2023-07-02T09:16:29;4.13;;;3.67;;
15067;SDS011;7633;60.024;18.770;2023-07-02T09:18:55;4.57;;;4.18;;
15067;SDS011;7633;60.024;18.770;2023-07-02T09:21:20;3.95;;;3.65;;
15067;SDS011;7633;60.024;18.770;2023-07-02T09:23:47;4.30;;;4.00;;
15067;SDS011;7633;60.024;18.770;2023-07-02T09:26:19;4.20;;;3.90;;
15067;SDS011;7633;60.024;18.770;2023-07-02T09:28:44;4.68;;;4.28;;
15067;SDS011;7633;60.024;18.770;2023-07-02T09:31:10;5.10;;;4.38;;
15067;SDS011;7633;60.024;18.770;2023-07-02T09:33:35;3.95;;;3.65;;
15067;SDS011;7633;60.024;18.770;2023-07-02T09:36:01;4.88;;;4.47;;
15067;SDS011;7633;60.024;18.770;2023-07-02T09:38:26;4.43;;;4.03;;
15067;SDS011;7633;60.024;18.770;2023-07-02T09:40:53;4.35;;;3.95;;
15067;SDS011;7633;60.024;18.770;2023-07-02T09:43:20;4.85;;;4.43;;
15067;SDS011;7633;60.024;18.770;2023-07-02T09:45:47;4.63;;;4.22;;
15067;SDS011;7633;60.024;18.770;2023-07-02T09:48:14;4.70;;;4.30;;
15067;SDS011;7633;60.024;18.770;2023-07-02T09:50:47;3.97;;;3.58;;
15067;SDS011;7633;60.024;18.770;2023-07-02T09:53:12;4.78;;;4.38;;
15067;SDS011;7633;60.024;18.770;2023-07-02T09:55:38;4.07;;;3.78;;
15067;SDS011;7633;60.024;18.770;2023-07-02T09:58:04;4.95;;;4.45;;
15067;SDS011;7633;60.024;18.770;2023-07-02T10:00:29;4.70;;;4.30;;
15067;SDS011;7633;60.024;18.770;2023-07-02T10:02:55;5.03;;;4.63;;
15067;SDS011;7633;60.024;18.770;2023-07-02T10:07:53;4.82;;;4.43;;
15067;SDS011;7633;60.024;18.770;2023-07-02T10:10:28;4.50;;;4.10;;
15067;SDS011;7633;60.024;18.770;2023-07-02T10:12:54;5.00;;;4.60;;
15067;SDS011;7633;60.024;18.770;2023-07-02T10:15:29;4.43;;;4.03;;
15067;SDS011;7633;60.024;18.770;2023-07-02T10:17:55;5.28;;;4.75;;
15067;SDS011;7633;60.024;18.770;2023-07-02T10:20:30;4.97;;;4.47;;
15067;SDS011;7633;60.024;18.770;2023-07-02T10:22:56;5.15;;;4.40;;
15067;SDS011;7633;60.024;18.770;2023-07-02T10:25:26;4.88;;;4.40;;
15067;SDS011;7633;60.024;18.770;2023-07-02T10:27:52;5.22;;;4.72;;
15067;SDS011;7633;60.024;18.770;2023-07-02T10:30:18;5.13;;;4.72;;
15067;SDS011;7633;60.024;18.770;2023-07-02T10:32:43;5.13;;;4.68;;
15067;SDS011;7633;60.024;18.770;2023-07-02T10:35:13;4.75;;;4.35;;
15067;SDS011;7633;60.024;18.770;2023-07-02T10:37:40;5.45;;;4.95;;
15067;SDS011;7633;60.024;18.770;2023-07-02T10:40:06;5.47;;;4.97;;
15067;SDS011;7633;60.024;18.770;2023-07-02T10:42:32;5.90;;;5.28;;
15067;SDS011;7633;60.024;18.770;2023-07-02T10:45:00;5.20;;;4.70;;
15067;SDS011;7633;60.024;18.770;2023-07-02T10:47:32;5.45;;;4.95;;
15067;SDS011;7633;60.024;18.770;2023-07-02T10:50:18;5.82;;;5.20;;
15067;SDS011;7633;60.024;18.770;2023-07-02T10:52:45;5.90;;;5.40;;
15067;SDS011;7633;60.024;18.770;2023-07-02T10:55:27;5.78;;;4.97;;
15067;SDS011;7633;60.024;18.770;2023-07-02T10:58:06;5.93;;;5.35;;
15067;SDS011;7633;60.024;18.770;2023-07-02T11:03:29;5.55;;;5.05;;
15067;SDS011;7633;60.024;18.770;2023-07-02T11:05:55;5.68;;;5.22;;
15067;SDS011;7633;60.024;18.770;2023-07-02T11:08:22;6.00;;;5.47;;
15067;SDS011;7633;60.024;18.770;2023-07-02T11:10:49;6.18;;;5.57;;
15067;SDS011;7633;60.024;18.770;2023-07-02T11:13:16;5.97;;;5.35;;
15067;SDS011;7633;60.024;18.770;2023-07-02T11:15:42;6.70;;;5.88;;
15067;SDS011;7633;60.024;18.770;2023-07-02T11:18:11;6.13;;;5.53;;
15067;SDS011;7633;60.024;18.770;2023-07-02T11:20:37;5.60;;;5.10;;
15067;SDS011;7633;60.024;18.770;2023-07-02T11:23:04;7.00;;;5.72;;
15067;SDS011;7633;60.024;18.770;2023-07-02T11:25:31;5.80;;;4.95;;
15067;SDS011;7633;60.024;18.770;2023-07-02T11:28:07;6.13;;;5.55;;
15067;SDS011;7633;60.024;18.770;2023-07-02T11:30:33;7.30;;;6.00;;
15067;SDS011;7633;60.024;18.770;2023-07-02T11:33:00;6.30;;;5.70;;
15067;SDS011;7633;60.024;18.770;2023-07-02T11:35:35;6.47;;;5.55;;
15067;SDS011;7633;60.024;18.770;2023-07-02T11:38:01;5.68;;;5.20;;
15067;SDS011;7633;60.024;18.770;2023-07-02T11:40:27;6.47;;;5.88;;
15067;SDS011;7633;60.024;18.770;2023-07-02T11:42:53;6.90;;;6.30;;
15067;SDS011;7633;60.024;18.770;2023-07-02T11:45:18;6.07;;;5.47;;
15067;SDS011;7633;60.024;18.770;2023-07-02T11:47:44;9.85;;;7.32;;
15067;SDS011;7633;60.024;18.770;2023-07-02T11:50:10;6.70;;;5.95;;
15067;SDS011;7633;60.024;18.770;2023-07-02T11:52:35;7.13;;;6.10;;
15067;SDS011;7633;60.024;18.770;2023-07-02T11:55:01;6.18;;;5.60;;
15067;SDS011;7633;60.024;18.770;2023-07-02T11:57:26;6.32;;;5.72;;
15067;SDS011;7633;60.024;18.770;2023-07-02T11:59:53;6.28;;;5.75;;
15067;SDS011;7633;60.024;18.770;2023-07-02T12:02:19;7.13;;;6.05;;
15067;SDS011;7633;60.024;18.770;2023-07-02T12:04:44;6.15;;;5.65;;
15067;SDS011;7633;60.024;18.770;2023-07-02T12:07:10;6.15;;;5.55;;
15067;SDS011;7633;60.024;18.770;2023-07-02T12:09:36;6.25;;;5.65;;
15067;SDS011;7633;60.024;18.770;2023-07-02T12:12:01;5.93;;;5.32;;
15067;SDS011;7633;60.024;18.770;2023-07-02T12:14:26;5.78;;;5.28;;
15067;SDS011;7633;60.024;18.770;2023-07-02T12:16:52;5.45;;;4.95;;
15067;SDS011;7633;60.024;18.770;2023-07-02T12:19:17;5.95;;;5.40;;
15067;SDS011;7633;60.024;18.770;2023-07-02T12:21:43;8.13;;;5.45;;
15067;SDS011;7633;60.024;18.770;2023-07-02T12:24:09;6.00;;;5.40;;
15067;SDS011;7633;60.024;18.770;2023-07-02T12:26:35;6.18;;;5.57;;
15067;SDS011;7633;60.024;18.770;2023-07-02T12:29:00;6.13;;;5.28;;
15067;SDS011;7633;60.024;18.770;2023-07-02T12:31:26;5.95;;;5.28;;
15067;SDS011;7633;60.024;18.770;2023-07-02T12:33:51;6.40;;;5.43;;
15067;SDS011;7633;60.024;18.770;2023-07-02T12:36:16;4.95;;;4.55;;
15067;SDS011;7633;60.024;18.770;2023-07-02T12:38:42;5.85;;;5.20;;
15067;SDS011;7633;60.024;18.770;2023-07-02T12:41:07;5.20;;;4.70;;
15067;SDS011;7633;60.024;18.770;2023-07-02T12:43:33;6.28;;;5.32;;
15067;SDS011;7633;60.024;18.770;2023-07-02T12:45:58;5.68;;;5.18;;
15067;SDS011;7633;60.024;18.770;2023-07-02T12:48:24;5.45;;;4.80;;
15067;SDS011;7633;60.024;18.770;2023-07-02T12:50:58;5.10;;;4.60;;
15067;SDS011;7633;60.024;18.770;2023-07-02T12:53:24;5.30;;;4.82;;
15067;SDS011;7633;60.024;18.770;2023-07-02T12:55:50;5.43;;;4.93;;
15067;SDS011;7633;60.024;18.770;2023-07-02T12:58:15;6.15;;;5.55;;
15067;SDS011;7633;60.024;18.770;2023-07-02T13:00:41;8.25;;;5.30;;
15067;SDS011;7633;60.024;18.770;2023-07-02T13:03:10;5.28;;;4.80;;
15067;SDS011;7633;60.024;18.770;2023-07-02T13:05:36;5.80;;;4.50;;
15067;SDS011;7633;60.024;18.770;2023-07-02T13:08:03;5.40;;;4.90;;
15067;SDS011;7633;60.024;18.770;2023-07-02T13:10:29;4.70;;;4.20;;
15067;SDS011;7633;60.024;18.770;2023-07-02T13:12:54;4.47;;;4.07;;
15067;SDS011;7633;60.024;18.770;2023-07-02T13:15:20;4.53;;;4.13;;
15067;SDS011;7633;60.024;18.770;2023-07-02T13:17:45;5.47;;;4.90;;
15067;SDS011;7633;60.024;18.770;2023-07-02T13:20:11;4.97;;;4.57;;
15067;SDS011;7633;60.024;18.770;2023-07-02T13:22:36;5.00;;;4.47;;
15067;SDS011;7633;60.024;18.770;2023-07-02T13:25:02;5.30;;;4.80;;
15067;SDS011;7633;60.024;18.770;2023-07-02T13:27:28;5.57;;;5.07;;
15067;SDS011;7633;60.024;18.770;2023-07-02T13:29:54;5.32;;;4.82;;
15067;SDS011;7633;60.024;18.770;2023-07-02T13:32:19;5.30;;;4.90;;
15067;SDS011;7633;60.024;18.770;2023-07-02T13:34:45;5.88;;;4.50;;
15067;SDS011;7633;60.024;18.770;2023-07-02T13:37:10;4.65;;;4.25;;
15067;SDS011;7633;60.024;18.770;2023-07-02T13:39:35;4.93;;;4.53;;
15067;SDS011;7633;60.024;18.770;2023-07-02T13:42:01;5.40;;;4.38;;
15067;SDS011;7633;60.024;18.770;2023-07-02T13:44:26;6.75;;;4.20;;
15067;SDS011;7633;60.024;18.770;2023-07-02T13:46:52;4.65;;;4.25;;
15067;SDS011;7633;60.024;18.770;2023-07-02T13:49:18;5.10;;;4.70;;
15067;SDS011;7633;60.024;18.770;2023-07-02T13:51:44;4.40;;;4.00;;
15067;SDS011;7633;60.024;18.770;2023-07-02T13:54:11;5.28;;;4.82;;
15067;SDS011;7633;60.024;18.770;2023-07-02T13:56:37;4.90;;;4.50;;
15067;SDS011;7633;60.024;18.770;2023-07-02T13:59:02;4.20;;;3.85;;
15067;SDS011;7633;60.024;18.770;2023-07-02T14:01:28;4.72;;;4.32;;
15067;SDS011;7633;60.024;18.770;2023-07-02T14:03:53;4.72;;;4.32;;
15067;SDS011;7633;60.024;18.770;2023-07-02T14:06:19;4.28;;;3.88;;
15067;SDS011;7633;60.024;18.770;2023-07-02T14:08:44;3.80;;;3.50;;
15067;SDS011;7633;60.024;18.770;2023-07-02T14:11:11;4.00;;;3.60;;
15067;SDS011;7633;60.024;18.770;2023-07-02T14:13:36;4.03;;;3.72;;
15067;SDS011;7633;60.024;18.770;2023-07-02T14:16:02;3.92;;;3.53;;
15067;SDS011;7633;60.024;18.770;2023-07-02T14:18:27;4.05;;;3.50;;
15067;SDS011;7633;60.024;18.770;2023-07-02T14:20:53;4.32;;;3.92;;
15067;SDS011;7633;60.024;18.770;2023-07-02T14:23:18;4.43;;;3.97;;
15067;SDS011;7633;60.024;18.770;2023-07-02T14:25:44;4.40;;;3.97;;
15067;SDS011;7633;60.024;18.770;2023-07-02T14:28:11;4.40;;;4.10;;
15067;SDS011;7633;60.024;18.770;2023-07-02T14:30:36;4.03;;;3.60;;
15067;SDS011;7633;60.024;18.770;2023-07-02T14:33:02;3.40;;;3.10;;
15067;SDS011;7633;60.024;18.770;2023-07-02T14:35:28;4.43;;;3.35;;
15067;SDS011;7633;60.024;18.770;2023-07-02T14:37:56;3.53;;;3.17;;
15067;SDS011;7633;60.024;18.770;2023-07-02T14:40:21;3.58;;;3.28;;
15067;SDS011;7633;60.024;18.770;2023-07-02T14:42:46;3.60;;;3.30;;
15067;SDS011;7633;60.024;18.770;2023-07-02T14:45:12;3.70;;;3.40;;
15067;SDS011;7633;60.024;18.770;2023-07-02T14:47:37;4.15;;;3.25;;